createdAt,value
2022-10-07T09:00:41.970Z,4.50
2022-10-07T09:15:51.813Z,3.50
2022-10-07T09:30:56.535Z,7.27
2022-10-07T09:46:02.533Z,45.88
2022-10-07T10:01:12.347Z,32.15
2022-10-07T10:16:36.153Z,29.63
2022-10-07T10:32:00.081Z,26.85
2022-10-07T10:47:15.258Z,21.52
2022-10-07T11:02:49.426Z,21.35
2022-10-07T11:17:57.195Z,19.20
2022-10-07T11:33:05.273Z,16.42
2022-10-07T11:48:15.535Z,15.48
2022-10-07T12:03:47.700Z,14.02
2022-10-07T12:19:19.785Z,11.77
2022-10-07T12:34:36.486Z,13.35
2022-10-07T12:49:45.567Z,13.20
2022-10-07T13:05:11.754Z,8.87
2022-10-07T13:20:41.461Z,10.52
2022-10-07T13:35:46.081Z,10.03
2022-10-07T13:50:51.227Z,7.60
2022-10-07T14:05:56.356Z,8.20
2022-10-07T14:21:10.375Z,7.07
2022-10-07T14:36:17.195Z,7.00
2022-10-07T14:51:24.591Z,9.13
2022-10-07T15:06:29.418Z,7.00
2022-10-07T15:21:34.132Z,5.70
2022-10-07T15:36:39.239Z,6.13
2022-10-07T15:51:44.382Z,6.45
2022-10-07T16:06:51.527Z,5.40
2022-10-07T16:21:56.046Z,4.53
2022-10-07T16:37:00.575Z,7.32
2022-10-07T16:52:06.401Z,5.65
2022-10-07T17:07:10.915Z,5.82
2022-10-07T17:22:15.422Z,7.75
2022-10-07T17:37:20.090Z,13.80
2022-10-07T17:52:27.545Z,11.05
2022-10-07T18:07:32.280Z,10.13
2022-10-07T18:22:36.811Z,8.77
2022-10-07T18:37:41.332Z,7.20
2022-10-07T18:52:46.000Z,8.05
2022-10-07T19:07:50.539Z,7.68
2022-10-07T19:22:55.036Z,6.55
2022-10-07T19:37:59.911Z,6.63
